Aviation Digital Data Service (ADDS)

Output produced by METARs form (1101 UTC 30 April 2017)
found at http://www.aviationweather.gov/adds/metars/
 
LSMA 301050Z AUTO 05006KT 010V090 9999NDV NCD 14/02 Q1010 RMK
LSZB 301050Z 29006KT 240V330 CAVOK 15/04 Q1009 NOSIG
TAF LSZB 300825Z 3009/3018 13005KT CAVOK 
     TEMPO 3010/3015 9999 FEW050 
     BECMG 3015/3018 9999 FEW050 SCT090
       
LSMD 301050Z AUTO VRB02KT 9999NDV NCD 15/04 Q1010 RMK
LSME 301050Z AUTO 06005KT 360V110 9999NDV NCD 15/04 Q1010 RMK
LSGG 301050Z 09007KT 050V120 9999 FEW070 SCT130 13/02 Q1010 NOSIG
TAF AMD LSGG 300922Z 3009/0115 07005KT CAVOK TX17/3015Z TN06/0105Z TX11/0115Z 
     BECMG 3013/3015 9999 FEW040 SCT150 
     BECMG 3015/3017 VRB03KT 
     BECMG 3021/3023 230010G20KT 9000 RA FEW005 BKN030 
     PROB40 
     TEMPO 0100/0107 VRB15G25KT 4500 +RA FEW010TCU BKN020 
     BECMG 0109/0111 9999 NSW FEW020 BKN045
     TEMPO 0109/0115 SHRA FEW020 BKN040
       
LSGC 301050Z 14008KT 070V170 CAVOK 12/M01 Q1010 WS R06
TAF LSGC 300825Z 3009/3018 14005KT CAVOK 
     BECMG 3012/3014 FEW025 SCT260
       
LSZA 301050Z 23006KT 180V290 9999 SCT050TCU BKN080 15/04 Q1016 NOSIG
TAF LSZA 300825Z 3009/3018 18004KT 9999 FEW040 SCT055
       
LSMM 301050Z AUTO 10014KT 060V130 9999NDV NCD 17/01 Q1009 RMK
LSMP 301050Z VRB03KT CAVOK 14/03 Q1010 RMK BLU
LSZS 301050Z 21013KT 9999 FEW080 04/M04 Q1013 RMK J
TAF LSZS 300825Z 3009/3018 VRB03KT CAVOK 
     BECMG 3009/3012 22010KT FEW040 TX07/3013Z 
     PROB40 
     TEMPO 3011/3015 22015G25KT
       
LSGS 301050Z VRB03KT 9999 FEW100 18/M02 Q1010
TAF LSGS 300825Z 3009/3018 VRB03KT CAVOK 
     BECMG 3009/3011 07006KT 9999 FEW090 SCT150 
     TEMPO 3010/3018 07015G25KT
       
LSZR 301050Z 28005KT 240V310 CAVOK 11/03 Q1011 NOSIG RMK E
TAF LSZR 300825Z 3009/3018 30004KT CAVOK
       
LSZH 301050Z VRB04KT CAVOK 15/03 Q1010 NOSIG
TAF LSZH 300825Z 3009/0115 30004KT CAVOK TX18/3015Z TN03/0101Z TX09/0115Z 
     BECMG 3009/3011 05007KT 
     PROB30 3012/3016 9999 FEW045 
     BECMG 3016/3018 12005KT 
     BECMG 3020/3022 VRB03KT 
     BECMG 0100/0103 9999 SCT040 BKN070 
     PROB40 
     TEMPO 0103/0106 29007KT 
     TEMPO 0106/0115 26010KT SHRA BKN020